createdAt,value
2018-01-25T00:00:46.241Z,3.00
2018-01-25T00:03:13.754Z,2.73
2018-01-25T00:05:41.943Z,2.77
2018-01-25T00:08:09.410Z,2.67
2018-01-25T00:10:36.883Z,2.80
2018-01-25T00:13:04.344Z,2.63
2018-01-25T00:15:31.801Z,2.60
2018-01-25T00:17:59.279Z,2.63
2018-01-25T00:20:27.509Z,3.23
2018-01-25T00:22:54.972Z,2.73
2018-01-25T00:25:22.423Z,2.97
2018-01-25T00:27:49.892Z,2.80
2018-01-25T00:30:17.363Z,3.30
2018-01-25T00:32:44.816Z,2.87
2018-01-25T00:35:12.285Z,2.87
2018-01-25T00:37:39.735Z,2.60
2018-01-25T00:40:07.199Z,3.10
2018-01-25T00:42:34.667Z,2.97
2018-01-25T00:45:02.907Z,3.33
2018-01-25T00:47:30.363Z,3.13
2018-01-25T00:49:57.830Z,3.00
2018-01-25T00:52:25.280Z,2.90
2018-01-25T00:54:52.747Z,2.90
2018-01-25T00:57:20.200Z,2.90
2018-01-25T00:59:47.675Z,3.20
2018-01-25T01:02:15.124Z,2.77
2018-01-25T01:04:42.600Z,2.77
2018-01-25T01:07:10.056Z,2.87
2018-01-25T01:09:38.291Z,2.87
2018-01-25T01:12:05.749Z,3.07
2018-01-25T01:14:33.220Z,3.07
2018-01-25T01:17:00.671Z,3.07
2018-01-25T01:19:28.141Z,2.90
2018-01-25T01:21:55.609Z,3.30
2018-01-25T01:24:23.080Z,3.60
2018-01-25T01:26:51.311Z,3.40
2018-01-25T01:29:18.775Z,3.13
2018-01-25T01:31:46.228Z,3.17
2018-01-25T01:34:13.697Z,3.90
2018-01-25T01:36:41.148Z,3.30
2018-01-25T01:39:09.388Z,3.07
2018-01-25T01:41:36.861Z,3.10
2018-01-25T01:44:04.323Z,3.03
2018-01-25T01:46:31.788Z,3.40
2018-01-25T01:48:59.244Z,3.43
2018-01-25T01:51:26.707Z,3.50
2018-01-25T01:53:54.174Z,3.40
2018-01-25T01:56:21.635Z,3.53
2018-01-25T01:58:49.090Z,3.50
2018-01-25T02:01:16.558Z,3.60
2018-01-25T02:03:44.008Z,3.13
2018-01-25T02:06:11.472Z,4.03
2018-01-25T02:08:38.923Z,4.13
2018-01-25T02:11:06.391Z,3.67
2018-01-25T02:13:33.855Z,3.40
2018-01-25T02:16:01.324Z,3.70
2018-01-25T02:18:29.539Z,3.70
2018-01-25T02:20:57.010Z,4.57
2018-01-25T02:23:25.243Z,3.20
2018-01-25T02:25:53.468Z,3.73
2018-01-25T02:28:20.924Z,4.20
2018-01-25T02:30:48.388Z,3.87
2018-01-25T02:33:15.843Z,3.77
2018-01-25T02:35:43.311Z,3.80
2018-01-25T02:38:10.756Z,3.73
2018-01-25T02:40:38.226Z,3.30
2018-01-25T02:43:05.679Z,3.90
2018-01-25T02:45:33.150Z,3.73
2018-01-25T02:48:00.607Z,4.20
2018-01-25T02:50:28.069Z,3.83
2018-01-25T02:52:55.531Z,3.97
2018-01-25T02:55:24.157Z,4.03
2018-01-25T02:57:51.711Z,3.87
2018-01-25T03:00:19.160Z,3.90
2018-01-25T03:02:46.625Z,3.93
2018-01-25T03:05:14.080Z,4.40
2018-01-25T03:07:41.540Z,4.30
2018-01-25T03:10:08.991Z,4.20
2018-01-25T03:12:36.476Z,4.30
2018-01-25T03:15:03.928Z,4.27
2018-01-25T03:17:31.387Z,4.13
2018-01-25T03:19:58.847Z,4.00
2018-01-25T03:22:26.313Z,3.97
2018-01-25T03:24:53.772Z,3.87
2018-01-25T03:27:21.249Z,4.33
2018-01-25T03:29:48.707Z,3.90
2018-01-25T03:32:16.173Z,3.83
2018-01-25T03:34:43.628Z,4.00
2018-01-25T03:37:11.088Z,3.90
2018-01-25T03:39:38.547Z,3.90
2018-01-25T03:42:06.008Z,4.30
2018-01-25T03:44:34.234Z,4.73
2018-01-25T03:47:01.709Z,4.80
2018-01-25T03:49:29.167Z,4.13
2018-01-25T03:51:56.632Z,3.70
2018-01-25T03:54:24.091Z,4.07
2018-01-25T03:56:51.559Z,3.40
2018-01-25T03:59:19.011Z,4.43
2018-01-25T04:01:46.488Z,3.90
2018-01-25T04:04:14.710Z,3.97
2018-01-25T04:06:42.173Z,4.13
2018-01-25T04:09:09.628Z,4.10
2018-01-25T04:11:37.084Z,3.50
2018-01-25T04:14:04.547Z,3.70
2018-01-25T04:16:32.007Z,4.33
2018-01-25T04:18:59.475Z,4.10
2018-01-25T04:21:27.696Z,4.20
2018-01-25T04:23:55.163Z,4.13
2018-01-25T04:26:22.629Z,4.03
2018-01-25T04:28:50.088Z,4.43
2018-01-25T04:31:17.549Z,4.53
2018-01-25T04:33:45.013Z,4.97
2018-01-25T04:36:12.475Z,4.53
2018-01-25T04:38:39.932Z,3.90
2018-01-25T04:41:07.399Z,4.10
2018-01-25T04:43:34.867Z,4.90
2018-01-25T04:46:02.324Z,4.33
2018-01-25T04:48:29.784Z,4.00
2018-01-25T04:50:57.245Z,3.80
2018-01-25T04:53:24.711Z,4.07
2018-01-25T04:55:52.164Z,5.10
2018-01-25T04:58:19.636Z,4.63
2018-01-25T05:00:47.091Z,4.03
2018-01-25T05:03:14.565Z,4.30
2018-01-25T05:05:42.780Z,4.77
2018-01-25T05:08:10.252Z,4.70
2018-01-25T05:10:37.712Z,4.60
2018-01-25T05:13:05.178Z,4.33
2018-01-25T05:15:32.631Z,4.10
2018-01-25T05:18:00.075Z,5.10
2018-01-25T05:20:27.572Z,4.50
2018-01-25T05:22:55.026Z,4.50
2018-01-25T05:25:22.897Z,4.73
2018-01-25T05:27:50.342Z,4.53
2018-01-25T05:30:17.812Z,4.23
2018-01-25T05:32:45.343Z,4.43
2018-01-25T05:35:12.799Z,4.87
2018-01-25T05:37:40.250Z,4.97
2018-01-25T05:40:07.720Z,4.87
2018-01-25T05:42:35.176Z,4.67
2018-01-25T05:45:02.650Z,4.63
2018-01-25T05:47:30.109Z,5.07
2018-01-25T05:49:57.585Z,4.70
2018-01-25T05:52:27.123Z,4.60
2018-01-25T05:55:01.787Z,4.90
2018-01-25T05:57:29.272Z,4.70
2018-01-25T05:59:57.511Z,5.10
2018-01-25T06:02:24.976Z,4.40
2018-01-25T06:04:52.443Z,5.30
2018-01-25T06:07:20.710Z,4.73
2018-01-25T06:09:48.185Z,4.83
2018-01-25T06:12:15.636Z,4.97
2018-01-25T06:14:43.109Z,5.20
2018-01-25T06:17:11.336Z,4.67
2018-01-25T06:19:39.798Z,4.93
2018-01-25T06:22:07.282Z,5.30
2018-01-25T06:24:34.794Z,5.40
2018-01-25T06:27:02.248Z,5.30
2018-01-25T06:29:30.495Z,4.70
2018-01-25T06:32:03.398Z,4.90
2018-01-25T06:34:31.637Z,5.40
2018-01-25T06:36:59.100Z,5.13
2018-01-25T06:39:26.572Z,4.80
2018-01-25T06:41:54.088Z,5.43
2018-01-25T06:44:21.606Z,4.37
2018-01-25T06:46:49.852Z,4.87
2018-01-25T06:49:17.308Z,5.50
2018-01-25T06:51:44.786Z,5.17
2018-01-25T06:54:12.261Z,4.50
2018-01-25T06:56:40.488Z,5.50
2018-01-25T06:59:07.953Z,5.80
2018-01-25T07:01:35.445Z,4.80
2018-01-25T07:06:36.785Z,4.53
2018-01-25T07:09:04.245Z,5.77
2018-01-25T07:11:33.267Z,5.40
2018-01-25T07:14:01.493Z,5.20
2018-01-25T07:16:29.074Z,4.47
2018-01-25T07:18:56.535Z,5.00
2018-01-25T07:21:24.006Z,5.00
2018-01-25T07:23:51.491Z,4.80
2018-01-25T07:26:18.951Z,4.20
2018-01-25T07:28:46.457Z,4.53
2018-01-25T07:31:13.930Z,4.73
2018-01-25T07:33:41.395Z,4.90
2018-01-25T07:36:08.908Z,4.83
2018-01-25T07:38:36.716Z,5.00
2018-01-25T07:41:04.199Z,4.43
2018-01-25T07:43:32.421Z,5.13
2018-01-25T07:45:59.961Z,5.60
2018-01-25T07:48:27.428Z,5.30
2018-01-25T07:50:54.901Z,4.83
2018-01-25T07:53:23.122Z,4.50
2018-01-25T07:55:50.591Z,4.50
2018-01-25T08:00:56.802Z,5.53
2018-01-25T08:03:24.271Z,4.20
2018-01-25T08:05:52.509Z,4.47
2018-01-25T08:08:19.988Z,5.10
2018-01-25T08:10:47.450Z,4.77
2018-01-25T08:13:20.684Z,4.47
2018-01-25T08:15:48.913Z,3.93
2018-01-25T08:18:16.384Z,4.17
2018-01-25T08:20:43.861Z,4.33
2018-01-25T08:23:11.339Z,4.37
2018-01-25T08:25:39.571Z,4.30
2018-01-25T08:28:07.046Z,3.63
2018-01-25T08:30:34.510Z,4.70
2018-01-25T08:33:01.992Z,4.60
2018-01-25T08:35:30.239Z,3.73
2018-01-25T08:37:57.736Z,4.30
2018-01-25T08:40:25.971Z,4.23
2018-01-25T08:42:53.437Z,4.50
2018-01-25T08:45:20.906Z,4.23
2018-01-25T08:47:49.151Z,4.00
2018-01-25T08:50:16.620Z,4.23
2018-01-25T08:52:44.089Z,4.80
2018-01-25T08:55:11.552Z,4.27
2018-01-25T08:57:39.014Z,4.00
2018-01-25T09:00:07.243Z,3.50
2018-01-25T09:02:34.722Z,3.90
2018-01-25T09:05:02.224Z,3.53
2018-01-25T09:07:29.811Z,4.20
2018-01-25T09:09:57.447Z,4.17
2018-01-25T09:12:25.021Z,3.80
2018-01-25T09:14:52.520Z,3.90
2018-01-25T09:17:20.075Z,3.67
2018-01-25T09:19:47.599Z,4.10
2018-01-25T09:22:15.134Z,3.63
2018-01-25T09:24:43.464Z,3.30
2018-01-25T09:27:10.982Z,3.67
2018-01-25T09:29:38.505Z,3.30
2018-01-25T09:32:06.104Z,3.53
2018-01-25T09:34:33.584Z,3.30
2018-01-25T09:37:01.255Z,3.20
2018-01-25T09:39:29.209Z,3.10
2018-01-25T09:41:56.874Z,2.60
2018-01-25T09:44:24.413Z,3.20
2018-01-25T09:46:52.006Z,2.73
2018-01-25T09:49:19.934Z,3.07
2018-01-25T09:51:48.251Z,3.20
2018-01-25T09:54:15.922Z,3.60
2018-01-25T09:56:43.486Z,2.67
2018-01-25T09:59:11.105Z,2.93
2018-01-25T10:01:38.617Z,3.13
2018-01-25T10:04:06.120Z,2.80
2018-01-25T10:06:33.664Z,3.43
2018-01-25T10:09:01.960Z,3.10
2018-01-25T10:11:29.438Z,3.50
2018-01-25T10:13:57.002Z,3.27
2018-01-25T10:16:24.488Z,3.60
2018-01-25T10:18:51.999Z,3.00
2018-01-25T10:21:19.469Z,3.47
2018-01-25T10:23:47.025Z,2.90
2018-01-25T10:26:14.539Z,3.00
2018-01-25T10:28:42.021Z,3.40
2018-01-25T10:31:09.545Z,3.47
2018-01-25T10:33:37.039Z,2.93
2018-01-25T10:36:04.543Z,2.80
2018-01-25T10:38:32.020Z,3.77
2018-01-25T10:40:59.495Z,2.70
2018-01-25T10:43:27.734Z,3.07
2018-01-25T10:45:55.255Z,3.10
2018-01-25T10:48:22.740Z,3.57
2018-01-25T10:50:50.229Z,3.70
2018-01-25T10:53:17.700Z,3.00
2018-01-25T10:55:45.935Z,3.00
2018-01-25T10:58:13.581Z,3.50
2018-01-25T11:00:46.736Z,3.53
2018-01-25T11:03:14.237Z,3.50
2018-01-25T11:05:41.833Z,3.17
2018-01-25T11:08:09.370Z,3.07
2018-01-25T11:10:36.863Z,3.53
2018-01-25T11:13:05.126Z,3.17
2018-01-25T11:15:32.626Z,3.33
2018-01-25T11:18:00.114Z,3.00
2018-01-25T11:20:27.596Z,3.10
2018-01-25T11:22:55.111Z,3.20
2018-01-25T11:25:23.026Z,3.50
2018-01-25T11:27:51.070Z,3.80
2018-01-25T11:30:19.737Z,3.17
2018-01-25T11:32:47.264Z,3.60
2018-01-25T11:35:15.650Z,3.87
2018-01-25T11:37:43.331Z,4.00
2018-01-25T11:40:10.780Z,3.80
2018-01-25T11:42:38.252Z,3.90
2018-01-25T11:45:05.722Z,3.40
2018-01-25T11:47:34.221Z,4.10
2018-01-25T11:50:02.962Z,4.27
2018-01-25T11:52:31.075Z,3.50
2018-01-25T11:55:22.074Z,3.30
2018-01-25T11:57:49.558Z,2.70
2018-01-25T12:00:17.091Z,3.30
2018-01-25T12:02:44.561Z,3.17
2018-01-25T12:05:12.064Z,3.57
2018-01-25T12:07:40.499Z,3.30
2018-01-25T12:10:07.969Z,3.20
2018-01-25T12:12:36.088Z,3.43
2018-01-25T12:15:03.060Z,2.93
2018-01-25T12:17:30.622Z,2.60
2018-01-25T12:19:58.091Z,3.00
2018-01-25T12:22:25.575Z,2.73
2018-01-25T12:24:53.064Z,3.23
2018-01-25T12:27:20.543Z,3.00
2018-01-25T12:29:48.011Z,2.70
2018-01-25T12:32:15.492Z,2.73
2018-01-25T12:34:42.996Z,2.70
2018-01-25T12:37:10.469Z,3.77
2018-01-25T12:39:37.932Z,2.67
2018-01-25T12:42:06.091Z,2.90
2018-01-25T12:44:33.645Z,2.50
2018-01-25T12:47:01.166Z,2.73
2018-01-25T12:49:29.830Z,2.57
2018-01-25T12:51:57.906Z,2.60
2018-01-25T12:54:25.383Z,2.80
2018-01-25T12:56:52.839Z,2.80
2018-01-25T12:59:20.316Z,3.00
2018-01-25T13:01:47.789Z,2.90
2018-01-25T13:04:15.251Z,3.17
2018-01-25T13:06:42.819Z,2.63
2018-01-25T13:09:10.305Z,3.23
2018-01-25T13:11:37.762Z,3.10
2018-01-25T13:14:05.239Z,2.43
2018-01-25T13:16:32.696Z,2.97
2018-01-25T13:19:00.172Z,2.43
2018-01-25T13:21:28.403Z,2.70
2018-01-25T13:23:55.904Z,2.97
2018-01-25T13:26:24.137Z,3.17
2018-01-25T13:28:51.611Z,2.80
2018-01-25T13:31:19.070Z,2.90
2018-01-25T13:33:46.544Z,2.70
2018-01-25T13:36:14.008Z,2.27
2018-01-25T13:38:42.262Z,3.07
2018-01-25T13:41:09.753Z,2.73
2018-01-25T13:43:37.991Z,3.00
2018-01-25T13:46:05.457Z,2.60
2018-01-25T13:48:33.088Z,3.13
2018-01-25T13:51:00.468Z,2.50
2018-01-25T13:53:27.942Z,3.33
2018-01-25T13:55:55.423Z,3.00
2018-01-25T13:58:23.686Z,2.90
2018-01-25T14:00:51.164Z,3.40
2018-01-25T14:03:18.620Z,3.30
2018-01-25T14:05:46.111Z,3.70
2018-01-25T14:08:13.575Z,3.50
2018-01-25T14:10:41.047Z,3.07
2018-01-25T14:13:08.519Z,3.20
2018-01-25T14:15:35.991Z,3.27
2018-01-25T14:18:04.220Z,3.10
2018-01-25T14:20:31.696Z,3.13
2018-01-25T14:22:59.164Z,3.20
2018-01-25T14:25:26.658Z,2.83
2018-01-25T14:27:54.120Z,3.37
2018-01-25T14:30:21.603Z,3.70
2018-01-25T14:32:49.075Z,3.20
2018-01-25T14:35:16.560Z,3.07
2018-01-25T14:37:44.031Z,3.00
2018-01-25T14:40:12.272Z,3.43
2018-01-25T14:42:39.734Z,3.10
2018-01-25T14:45:07.334Z,3.23
2018-01-25T14:47:35.565Z,3.80
2018-01-25T14:50:03.040Z,4.07
2018-01-25T14:52:30.506Z,4.10
2018-01-25T14:54:57.977Z,3.50
2018-01-25T14:57:26.228Z,3.70
2018-01-25T14:59:53.699Z,3.60
2018-01-25T15:02:21.169Z,4.17
2018-01-25T15:04:49.393Z,2.90
2018-01-25T15:07:16.859Z,3.23
2018-01-25T15:09:44.354Z,3.17
2018-01-25T15:12:11.791Z,4.37
2018-01-25T15:14:39.273Z,3.60
2018-01-25T15:17:07.512Z,3.60
2018-01-25T15:19:34.979Z,3.90
2018-01-25T15:22:02.447Z,3.70
2018-01-25T15:24:29.916Z,4.50
2018-01-25T15:26:58.163Z,3.77
2018-01-25T15:29:25.614Z,3.37
2018-01-25T15:31:53.083Z,4.30
2018-01-25T15:34:20.551Z,4.47
2018-01-25T15:36:48.015Z,4.23
2018-01-25T15:39:16.246Z,5.10
2018-01-25T15:41:43.715Z,5.67
2018-01-25T15:44:11.179Z,6.57
2018-01-25T15:46:38.664Z,6.47
2018-01-25T15:49:06.120Z,6.80
2018-01-25T15:51:33.599Z,7.13
2018-01-25T15:54:01.830Z,6.73
2018-01-25T15:56:29.304Z,5.50
2018-01-25T15:58:56.763Z,6.23
2018-01-25T16:01:24.239Z,5.00
2018-01-25T16:03:52.477Z,5.13
2018-01-25T16:06:19.937Z,5.70
2018-01-25T16:08:47.428Z,5.83
2018-01-25T16:11:15.677Z,6.30
2018-01-25T16:13:43.143Z,5.23
2018-01-25T16:16:10.615Z,5.40
2018-01-25T16:18:38.853Z,6.07
2018-01-25T16:21:06.317Z,5.13
2018-01-25T16:23:33.795Z,7.57
2018-01-25T16:26:01.265Z,5.90
2018-01-25T16:28:29.534Z,6.30
2018-01-25T16:30:57.344Z,7.00
2018-01-25T16:33:24.825Z,6.40
2018-01-25T16:35:53.052Z,6.40
2018-01-25T16:38:20.523Z,6.03
2018-01-25T16:40:47.977Z,5.33
2018-01-25T16:43:15.491Z,6.20
2018-01-25T16:45:42.938Z,5.40
2018-01-25T16:50:44.719Z,6.27
2018-01-25T16:53:13.553Z,5.93
2018-01-25T16:55:41.031Z,6.00
2018-01-25T16:58:08.507Z,6.10
2018-01-25T17:00:46.962Z,5.43
2018-01-25T17:03:14.899Z,5.50
2018-01-25T17:05:43.213Z,5.00
2018-01-25T17:08:10.796Z,5.03
2018-01-25T17:10:38.342Z,4.90
2018-01-25T17:13:06.703Z,5.80
2018-01-25T17:15:34.290Z,4.67
2018-01-25T17:18:01.879Z,4.80
2018-01-25T17:20:29.436Z,5.67
2018-01-25T17:22:56.958Z,4.37
2018-01-25T17:25:25.314Z,4.93
2018-01-25T17:27:52.920Z,4.30
2018-01-25T17:30:20.557Z,4.80
2018-01-25T17:32:48.357Z,4.20
2018-01-25T17:35:16.808Z,4.40
2018-01-25T17:37:44.344Z,5.40
2018-01-25T17:40:11.891Z,4.60
2018-01-25T17:42:39.410Z,5.33
2018-01-25T17:45:06.918Z,4.97
2018-01-25T17:47:34.445Z,5.40
2018-01-25T17:50:02.759Z,6.53
2018-01-25T17:52:30.408Z,6.50
2018-01-25T17:54:57.978Z,5.77
2018-01-25T17:57:25.573Z,5.47
2018-01-25T17:59:53.196Z,4.87
2018-01-25T18:02:20.723Z,6.50
2018-01-25T18:04:48.330Z,6.50
2018-01-25T18:07:15.954Z,4.73
2018-01-25T18:09:43.515Z,5.90
2018-01-25T18:12:11.137Z,5.80
2018-01-25T18:14:38.774Z,5.70
2018-01-25T18:17:06.368Z,5.40
2018-01-25T18:19:33.857Z,5.63
2018-01-25T18:22:02.209Z,5.13
2018-01-25T18:24:29.699Z,5.63
2018-01-25T18:26:57.931Z,5.80
2018-01-25T18:29:25.390Z,5.17
2018-01-25T18:31:52.844Z,5.60
2018-01-25T18:34:21.210Z,6.43
2018-01-25T18:36:48.658Z,6.60
2018-01-25T18:39:16.156Z,5.90
2018-01-25T18:41:43.618Z,6.73
2018-01-25T18:44:11.127Z,5.47
2018-01-25T18:46:38.649Z,7.57
2018-01-25T18:49:06.149Z,7.23
2018-01-25T18:51:33.662Z,7.97
2018-01-25T18:54:01.195Z,7.40
2018-01-25T18:56:28.657Z,8.67
2018-01-25T18:58:56.106Z,9.57
2018-01-25T19:01:23.631Z,8.50
2018-01-25T19:03:51.130Z,9.20
2018-01-25T19:06:18.596Z,8.47
2018-01-25T19:08:46.062Z,8.67
2018-01-25T19:11:13.586Z,7.87
2018-01-25T19:13:41.039Z,8.23
2018-01-25T19:16:08.583Z,8.80
2018-01-25T19:18:36.048Z,9.60
2018-01-25T19:21:03.541Z,8.27
2018-01-25T19:23:30.991Z,7.70
2018-01-25T19:25:59.225Z,7.60
2018-01-25T19:28:26.754Z,7.53
2018-01-25T19:30:54.308Z,8.23
2018-01-25T19:33:21.798Z,8.27
2018-01-25T19:35:49.261Z,7.67
2018-01-25T19:38:16.775Z,7.90
2018-01-25T19:40:44.289Z,7.70
2018-01-25T19:43:11.790Z,6.10
2018-01-25T19:45:39.300Z,5.07
2018-01-25T19:48:06.796Z,6.30
2018-01-25T19:50:34.364Z,6.70
2018-01-25T19:53:01.870Z,6.20
2018-01-25T19:55:29.381Z,5.90
2018-01-25T19:57:56.995Z,6.43
2018-01-25T20:00:24.450Z,6.70
2018-01-25T20:02:51.972Z,6.53
2018-01-25T20:05:19.429Z,5.30
2018-01-25T20:07:46.945Z,7.30
2018-01-25T20:10:14.472Z,7.60
2018-01-25T20:12:42.022Z,8.13
2018-01-25T20:15:10.305Z,9.10
2018-01-25T20:17:38.539Z,8.43
2018-01-25T20:20:06.047Z,7.80
2018-01-25T20:22:33.569Z,7.87
2018-01-25T20:25:01.030Z,8.27
2018-01-25T20:27:28.499Z,8.47
2018-01-25T20:29:56.775Z,7.70
2018-01-25T20:32:25.005Z,7.70
2018-01-25T20:34:52.575Z,7.40
2018-01-25T20:37:20.087Z,7.47
2018-01-25T20:39:48.350Z,6.60
2018-01-25T20:42:16.632Z,6.30
2018-01-25T20:44:44.165Z,7.07
2018-01-25T20:47:11.705Z,6.90
2018-01-25T20:49:39.216Z,5.97
2018-01-25T20:52:07.653Z,7.60
2018-01-25T20:54:35.256Z,6.87
2018-01-25T20:57:03.552Z,6.77
2018-01-25T20:59:31.123Z,5.87
2018-01-25T21:01:58.640Z,7.53
2018-01-25T21:04:26.107Z,7.60
2018-01-25T21:06:54.435Z,7.37
2018-01-25T21:09:22.089Z,8.17
2018-01-25T21:11:49.660Z,8.23
2018-01-25T21:14:17.267Z,8.13
2018-01-25T21:16:44.887Z,7.17
2018-01-25T21:19:12.569Z,7.30
2018-01-25T21:21:41.013Z,7.37
2018-01-25T21:24:08.542Z,8.37
2018-01-25T21:26:36.114Z,9.50
2018-01-25T21:29:03.721Z,12.53
2018-01-25T21:31:31.410Z,12.37
2018-01-25T21:33:58.959Z,11.10
2018-01-25T21:36:26.581Z,9.73
2018-01-25T21:38:54.142Z,9.90
2018-01-25T21:41:22.504Z,10.00
2018-01-25T21:43:50.096Z,9.10
2018-01-25T21:46:17.684Z,8.30
2018-01-25T21:48:46.072Z,9.00
2018-01-25T21:51:14.428Z,8.70
2018-01-25T21:53:41.959Z,7.90
2018-01-25T21:56:09.467Z,9.53
2018-01-25T21:58:37.807Z,9.17
2018-01-25T22:01:05.371Z,9.40
2018-01-25T22:03:32.907Z,10.00
2018-01-25T22:06:00.476Z,8.93
2018-01-25T22:08:28.058Z,9.40
2018-01-25T22:10:55.572Z,8.87
2018-01-25T22:13:23.130Z,8.87
2018-01-25T22:15:50.736Z,8.47
2018-01-25T22:18:18.240Z,8.03
2018-01-25T22:20:45.769Z,8.17
2018-01-25T22:23:13.268Z,8.87
2018-01-25T22:25:40.846Z,7.23
2018-01-25T22:28:08.421Z,8.93
2018-01-25T22:30:35.996Z,7.80
2018-01-25T22:35:37.525Z,7.57
2018-01-25T22:38:05.089Z,7.70
2018-01-25T22:40:32.591Z,6.87
2018-01-25T22:43:00.074Z,7.93
2018-01-25T22:45:27.567Z,7.10
2018-01-25T22:47:55.116Z,6.70
2018-01-25T22:50:22.630Z,8.07
2018-01-25T22:52:50.184Z,8.50
2018-01-25T22:55:17.733Z,7.30
2018-01-25T22:57:45.279Z,6.30
2018-01-25T23:00:12.775Z,7.30
2018-01-25T23:02:40.272Z,6.17
2018-01-25T23:05:07.787Z,6.80
2018-01-25T23:07:36.063Z,7.47
2018-01-25T23:10:03.604Z,6.33
2018-01-25T23:12:31.089Z,7.00
2018-01-25T23:14:58.622Z,6.80
2018-01-25T23:17:26.155Z,7.57
2018-01-25T23:19:53.642Z,7.13
2018-01-25T23:22:21.118Z,7.00
2018-01-25T23:24:48.615Z,6.63
2018-01-25T23:27:16.149Z,4.67
2018-01-25T23:29:43.642Z,4.97
2018-01-25T23:32:11.133Z,4.63
2018-01-25T23:34:38.774Z,6.67
2018-01-25T23:37:07.024Z,4.90
2018-01-25T23:39:34.601Z,5.57
2018-01-25T23:42:02.075Z,5.33
2018-01-25T23:44:29.617Z,5.60
2018-01-25T23:46:57.106Z,5.63
2018-01-25T23:49:24.564Z,5.10
2018-01-25T23:51:52.038Z,6.00
2018-01-25T23:54:20.276Z,5.40
2018-01-25T23:56:47.768Z,5.27
2018-01-25T23:59:15.244Z,5.00
